Time;durP1;ratioP1;P1;durP2;ratioP2;P2;SDS_P1;SDS_P2;PMS_P1;PMS_P2;Temp;Humidity;BMP_temperature;BMP_pressure;BME280_temperature;BME280_humidity;BME280_pressure;Samples;Min_cycle;Max_cycle;Signal;HPM_P1;HPM_P2
2022/05/21 00:01:28;;;;;;;14.18;6.90;;;;;;;-145.69;100.00;71489.94;5072956;28;20210;-77
2022/05/21 00:03:54;;;;;;;8.82;5.68;;;;;;;-145.69;100.00;71495.91;5072835;28;20203;-78
2022/05/21 00:06:21;;;;;;;11.38;6.18;;;;;;;-145.69;100.00;71501.88;5072444;28;20692;-78
2022/05/21 00:08:50;;;;;;;13.43;5.65;;;;;;;-145.69;100.00;71505.88;5072887;28;20209;-78
2022/05/21 00:11:18;;;;;;;10.13;6.43;;;;;;;-145.69;100.00;71513.81;5072640;28;20205;-78
2022/05/21 00:13:47;;;;;;;7.82;5.40;;;;;;;-145.69;100.00;71515.81;5078641;28;20210;-78
2022/05/21 00:16:13;;;;;;;11.65;5.63;;;;;;;-145.69;100.00;71529.75;5078947;28;20217;-77
2022/05/21 00:18:40;;;;;;;6.72;4.45;;;;;;;-145.69;100.00;71525.78;5079806;28;20212;-78
2022/05/21 00:21:06;;;;;;;8.95;4.80;;;;;;;-145.69;100.00;71539.69;5079622;28;20199;-78
2022/05/21 00:23:34;;;;;;;8.90;4.47;;;;;;;-145.69;100.00;71555.63;5079447;28;20202;-78
2022/05/21 00:26:03;;;;;;;9.25;4.65;;;;;;;-145.69;100.00;71559.59;5079206;28;20214;-77
2022/05/21 00:28:32;;;;;;;6.65;3.92;;;;;;;-145.69;100.00;71569.53;5079276;28;20210;-77
2022/05/21 00:30:59;;;;;;;6.95;3.92;;;;;;;-145.69;100.00;71571.53;5079263;28;20204;-78
2022/05/21 00:33:28;;;;;;;5.72;4.20;;;;;;;-145.69;100.00;71585.47;5079444;28;20205;-78
2022/05/21 00:35:55;;;;;;;8.02;4.43;;;;;;;-145.69;100.00;71579.50;5079176;28;20186;-78
2022/05/21 00:38:22;;;;;;;7.35;3.95;;;;;;;-145.69;100.00;71593.44;5079106;28;20206;-78
2022/05/21 00:40:49;;;;;;;9.45;4.05;;;;;;;-145.69;100.00;71593.44;5079330;28;20344;-78
2022/05/21 00:43:39;;;;;;;7.10;4.50;;;;;;;-145.69;100.00;71589.44;5079246;28;20542;-78
2022/05/21 00:46:08;;;;;;;7.35;4.38;;;;;;;-145.69;100.00;71597.41;5079272;28;20195;-77
2022/05/21 00:48:38;;;;;;;8.90;4.63;;;;;;;-145.69;100.00;71607.34;5078988;28;20832;-77
2022/05/21 00:51:07;;;;;;;8.38;4.35;;;;;;;-145.69;100.00;71617.31;5078982;28;20238;-78
2022/05/21 00:53:34;;;;;;;8.53;4.67;;;;;;;-145.69;100.00;71617.31;5079170;28;20565;-77
2022/05/21 00:56:01;;;;;;;9.68;4.38;;;;;;;-145.69;100.00;71623.28;5079134;28;20190;-77
2022/05/21 01:01:20;;;;;;;5.43;3.60;;;;;;;-145.69;100.00;71625.25;5079146;28;20198;-77
2022/05/21 01:03:46;;;;;;;5.43;3.40;;;;;;;-145.69;100.00;71643.19;5079186;28;20202;-77
2022/05/21 01:06:15;;;;;;;6.50;3.93;;;;;;;-145.69;100.00;71657.09;5078786;28;20552;-78
2022/05/21 01:08:41;;;;;;;6.17;3.70;;;;;;;-145.69;100.00;71680.97;5079263;28;20226;-77
2022/05/21 01:11:12;;;;;;;6.47;3.20;;;;;;;-145.69;100.00;71700.88;5079089;28;20203;-77
2022/05/21 01:13:41;;;;;;;7.50;3.57;;;;;;;-145.69;100.00;71720.78;5079145;28;20293;-78
2022/05/21 01:16:07;;;;;;;5.67;3.37;;;;;;;-145.69;100.00;71728.75;5078590;28;20665;-77
2022/05/21 01:18:36;;;;;;;8.65;3.40;;;;;;;-145.69;100.00;71732.72;5078687;28;20206;-77
2022/05/21 01:21:03;;;;;;;6.90;3.80;;;;;;;-145.69;100.00;71750.63;5078812;28;20657;-77
2022/05/21 01:23:32;;;;;;;6.03;3.37;;;;;;;-145.69;100.00;71784.47;5077900;28;20206;-77
2022/05/21 01:26:03;;;;;;;9.50;3.60;;;;;;;-145.69;100.00;71804.38;5074921;28;20217;-78
2022/05/21 01:28:33;;;;;;;6.37;3.37;;;;;;;-145.69;100.00;71824.25;5075627;28;20230;-78
2022/05/21 01:31:02;;;;;;;7.03;3.70;;;;;;;-145.69;100.00;71836.22;5075320;28;20439;-78
2022/05/21 01:34:21;;;;;;;5.53;3.40;;;;;;;-145.69;100.00;71852.13;5075327;28;20584;-78
2022/05/21 01:36:49;;;;;;;7.07;3.83;;;;;;;-145.69;100.00;71850.13;5056264;28;20207;-77
2022/05/21 01:39:18;;;;;;;7.43;3.50;;;;;;;-145.69;100.00;71858.09;5055566;28;20199;-77
2022/05/21 01:41:45;;;;;;;6.47;4.07;;;;;;;-145.69;100.00;71846.16;5055516;28;20305;-78
2022/05/21 01:46:57;;;;;;;7.10;5.03;;;;;;;-145.69;100.00;71824.25;5062603;28;20299;-78
2022/05/21 01:49:26;;;;;;;10.13;4.90;;;;;;;-145.69;100.00;71836.22;5075282;28;20198;-78
2022/05/21 01:51:53;;;;;;;11.73;5.67;;;;;;;-145.69;100.00;71828.25;5075093;28;20230;-78
2022/05/21 01:54:24;;;;;;;9.83;5.67;;;;;;;-145.69;100.00;71836.22;5075176;28;20657;-77
2022/05/21 01:56:50;;;;;;;8.40;4.53;;;;;;;-145.69;100.00;71846.16;5074670;28;20199;-77
2022/05/21 01:59:18;;;;;;;11.80;5.40;;;;;;;-145.69;100.00;71858.09;5074853;28;20205;-78
2022/05/21 02:01:46;;;;;;;10.20;6.00;;;;;;;-145.69;100.00;71840.19;5074934;28;20198;-78
2022/05/21 02:04:14;;;;;;;11.93;6.43;;;;;;;-145.69;100.00;71852.13;5074906;28;20688;-78
2022/05/21 02:06:40;;;;;;;16.63;7.50;;;;;;;-145.69;100.00;71836.22;5074480;28;20218;-78
2022/05/21 02:09:07;;;;;;;11.13;6.30;;;;;;;-145.69;100.00;71844.16;5075044;28;20248;-77
2022/05/21 02:11:35;;;;;;;11.93;6.87;;;;;;;-145.69;100.00;71844.16;5075085;28;20591;-78
2022/05/21 02:14:01;;;;;;;18.93;7.40;;;;;;;-145.69;100.00;71828.25;5074731;28;20195;-78
2022/05/21 02:16:29;;;;;;;12.43;7.80;;;;;;;-145.69;100.00;71840.19;5075020;28;20272;-78
2022/05/21 02:18:57;;;;;;;15.03;8.03;;;;;;;-145.69;100.00;71844.16;5074218;28;20210;-78
2022/05/21 02:21:23;;;;;;;13.73;8.93;;;;;;;-145.69;100.00;71824.25;5074772;28;20202;-78
2022/05/21 02:23:50;;;;;;;14.40;8.20;;;;;;;-145.69;100.00;71820.28;5074348;28;20499;-78
2022/05/21 02:26:19;;;;;;;21.87;8.77;;;;;;;-145.69;100.00;71820.28;5074827;28;20224;-78
2022/05/21 02:28:47;;;;;;;13.93;8.30;;;;;;;-145.69;100.00;71792.44;5073703;28;20226;-77
2022/05/21 02:31:14;;;;;;;12.33;6.93;;;;;;;-145.69;100.00;71788.44;5074514;28;20253;-77
2022/05/21 02:33:41;;;;;;;9.23;6.00;;;;;;;-145.69;100.00;71760.59;5074320;28;20569;-78
2022/05/21 02:36:09;;;;;;;22.03;6.70;;;;;;;-145.69;100.00;71770.53;5074071;28;20206;-78
2022/05/21 02:41:19;;;;;;;11.77;5.40;;;;;;;-145.69;100.00;71812.31;5050965;28;20199;-78
2022/05/21 02:43:47;;;;;;;11.97;6.47;;;;;;;-145.69;100.00;71824.25;5074375;28;20199;-79
2022/05/21 02:46:16;;;;;;;14.07;7.17;;;;;;;-145.69;100.00;71812.31;5074075;28;20202;-79
2022/05/21 02:48:43;;;;;;;12.00;7.17;;;;;;;-145.69;100.00;71792.44;5074251;28;20230;-78
2022/05/21 02:51:11;;;;;;;10.10;5.97;;;;;;;-145.69;100.00;71798.41;5073609;28;20227;-78
2022/05/21 02:53:40;;;;;;;10.43;6.13;;;;;;;-145.69;100.00;71798.41;5073276;28;20191;-78
2022/05/21 02:56:08;;;;;;;9.73;6.20;;;;;;;-145.69;100.00;71802.38;5073574;28;20554;-78
2022/05/21 02:58:35;;;;;;;15.37;6.10;;;;;;;-145.69;100.00;71810.34;5073700;28;20198;-78
2022/05/21 03:01:03;;;;;;;13.47;6.30;;;;;;;-145.69;100.00;71816.31;5074046;28;20199;-77
2022/05/21 03:03:29;;;;;;;9.77;6.03;;;;;;;-145.69;100.00;71828.25;5073769;28;20199;-77
2022/05/21 03:05:56;;;;;;;10.10;5.90;;;;;;;-145.69;100.00;71852.13;5073477;28;20195;-78
2022/05/21 03:11:06;;;;;;;12.25;7.20;;;;;;;-145.69;100.00;71881.97;5073558;28;20998;-77
2022/05/21 03:13:34;;;;;;;14.27;6.47;;;;;;;-145.69;100.00;71897.91;5073691;28;20206;-78
2022/05/21 03:16:05;;;;;;;15.37;7.77;;;;;;;-145.69;100.00;71876.00;5073627;28;20238;-77
2022/05/21 03:18:32;;;;;;;17.77;7.80;;;;;;;-145.69;100.00;71876.00;5072982;28;20195;-77
2022/05/21 03:21:01;;;;;;;12.63;7.47;;;;;;;-145.69;100.00;71872.03;5073505;28;20207;-77
2022/05/21 03:23:27;;;;;;;13.30;7.77;;;;;;;-145.69;100.00;71883.97;5073394;28;20194;-77
2022/05/21 03:25:54;;;;;;;12.60;8.03;;;;;;;-145.69;100.00;71893.91;5073602;28;20260;-77
2022/05/21 03:28:21;;;;;;;13.37;6.97;;;;;;;-145.69;100.00;71909.84;5065795;28;20224;-77
2022/05/21 03:30:50;;;;;;;11.20;7.43;;;;;;;-145.69;100.00;71897.91;5066667;28;20601;-77
2022/05/21 03:33:18;;;;;;;14.40;8.20;;;;;;;-145.69;100.00;71899.88;5073306;28;20198;-77
2022/05/21 03:35:44;;;;;;;13.33;7.63;;;;;;;-145.69;100.00;71907.84;5073411;28;20199;-78
2022/05/21 03:38:11;;;;;;;15.23;8.07;;;;;;;-145.69;100.00;71911.84;5073295;28;20225;-78
2022/05/21 03:40:39;;;;;;;10.97;7.27;;;;;;;-145.69;100.00;71901.88;5072868;28;20222;-78
2022/05/21 03:43:05;;;;;;;17.83;8.93;;;;;;;-145.69;100.00;71895.91;5073223;28;20199;-78
2022/05/21 03:45:32;;;;;;;16.17;8.87;;;;;;;-145.69;100.00;71887.94;5073132;28;20595;-77
2022/05/21 03:47:59;;;;;;;17.00;9.53;;;;;;;-145.69;100.00;71876.00;5072241;28;20226;-78
2022/05/21 03:50:31;;;;;;;18.87;8.80;;;;;;;-145.69;100.00;71872.03;5072317;28;20235;-77
2022/05/21 03:52:58;;;;;;;20.53;9.10;;;;;;;-145.69;100.00;71864.06;5072969;28;20203;-77
2022/05/21 03:55:24;;;;;;;16.80;8.43;;;;;;;-145.69;100.00;71856.09;5073158;28;20209;-77
2022/05/21 03:57:50;;;;;;;13.57;8.27;;;;;;;-145.69;100.00;71860.09;5072766;28;20240;-77
2022/05/21 04:00:21;;;;;;;13.87;7.93;;;;;;;-145.69;100.00;71856.09;5072873;28;20203;-78
2022/05/21 04:02:48;;;;;;;13.60;7.67;;;;;;;-145.69;100.00;71856.09;5072817;28;20665;-78
2022/05/21 04:05:17;;;;;;;14.13;7.43;;;;;;;-145.69;100.00;71848.16;5072957;28;20218;-78
2022/05/21 04:07:45;;;;;;;12.63;7.73;;;;;;;-145.69;100.00;71852.13;5072545;28;20233;-77
2022/05/21 04:10:14;;;;;;;12.47;6.93;;;;;;;-145.69;100.00;71856.09;5072781;28;20657;-77
2022/05/21 04:12:43;;;;;;;11.80;7.80;;;;;;;-145.69;100.00;71854.13;5072817;28;20199;-78
2022/05/21 04:15:11;;;;;;;10.20;6.63;;;;;;;-145.69;100.00;71852.13;5072728;28;20213;-77
2022/05/21 04:17:40;;;;;;;12.63;7.03;;;;;;;-145.69;100.00;71848.16;5072894;28;20252;-77
2022/05/21 04:20:10;;;;;;;9.37;6.00;;;;;;;-145.69;100.00;71852.13;5072750;28;20197;-77
2022/05/21 04:22:37;;;;;;;13.10;6.60;;;;;;;-145.69;100.00;71850.13;5072226;28;20293;-77
2022/05/21 04:25:06;;;;;;;11.17;6.60;;;;;;;-145.69;100.00;71850.13;5072786;28;20260;-76
2022/05/21 04:27:33;;;;;;;12.73;6.13;;;;;;;-145.69;100.00;71862.06;5072172;28;20207;-78
2022/05/21 04:29:59;;;;;;;9.73;6.07;;;;;;;-145.69;100.00;71860.09;5072378;28;20194;-77
2022/05/21 04:32:25;;;;;;;6.87;5.33;;;;;;;-145.69;100.00;71856.09;5072604;28;20608;-77
2022/05/21 04:34:52;;;;;;;10.53;5.80;;;;;;;-145.69;100.00;71868.06;5072681;28;20206;-77
2022/05/21 04:37:19;;;;;;;12.90;5.00;;;;;;;-145.69;100.00;71864.06;5072605;28;20195;-77
2022/05/21 04:39:46;;;;;;;10.47;5.87;;;;;;;-145.69;100.00;71876.00;5072461;28;20233;-77
2022/05/21 04:42:15;;;;;;;9.27;5.05;;;;;;;-145.69;100.00;71870.03;5072334;28;20206;-76
2022/05/21 04:44:41;;;;;;;12.35;5.13;;;;;;;-145.69;100.00;71868.06;5072621;28;20719;-76
2022/05/21 04:47:08;;;;;;;9.53;4.97;;;;;;;-145.69;100.00;71880.00;5072569;28;20198;-76
2022/05/21 04:49:35;;;;;;;6.37;4.57;;;;;;;-145.69;100.00;71878.00;5072143;28;20237;-77
2022/05/21 04:52:02;;;;;;;7.43;4.63;;;;;;;-145.69;100.00;71880.00;5071734;28;20234;-77
2022/05/21 04:54:29;;;;;;;7.40;4.63;;;;;;;-145.69;100.00;71878.00;5072385;28;20252;-77
2022/05/21 04:56:55;;;;;;;4.83;4.23;;;;;;;-145.69;100.00;71891.94;5072198;28;20207;-77
2022/05/21 04:59:23;;;;;;;8.97;4.17;;;;;;;-145.69;100.00;71887.94;5074561;28;20252;-78
2022/05/21 05:01:49;;;;;;;6.10;4.57;;;;;;;-145.69;100.00;71887.94;5076156;28;20214;-78
2022/05/21 05:04:16;;;;;;;10.37;4.60;;;;;;;-145.69;100.00;71901.88;5075606;28;20267;-77
2022/05/21 05:06:42;;;;;;;7.77;5.13;;;;;;;-145.69;100.00;71915.81;5075928;28;20209;-77
2022/05/21 05:09:10;;;;;;;12.17;5.50;;;;;;;-145.69;100.00;71907.84;5075613;28;20620;-77
2022/05/21 05:11:37;;;;;;;10.93;4.37;;;;;;;-145.69;100.00;71913.81;5075767;28;20653;-77
2022/05/21 05:14:04;;;;;;;7.93;4.57;;;;;;;-145.69;100.00;71913.81;5075939;28;20673;-76
2022/05/21 05:16:32;;;;;;;7.13;4.70;;;;;;;-145.69;100.00;71915.81;5075591;28;20194;-77
2022/05/21 05:19:00;;;;;;;11.13;4.60;;;;;;;-145.69;100.00;71925.75;5075821;28;20202;-76
2022/05/21 05:21:26;;;;;;;9.02;4.97;;;;;;;-145.69;100.00;71905.88;5075015;28;20445;-77
2022/05/21 05:23:52;;;;;;;10.03;4.40;;;;;;;-145.69;100.00;71891.94;5075632;28;20202;-76
2022/05/21 05:26:19;;;;;;;7.97;4.30;;;;;;;-145.69;100.00;71876.00;5075802;28;20543;-76
2022/05/21 05:28:46;;;;;;;6.57;4.60;;;;;;;-145.69;100.00;71883.97;5075433;28;20305;-76
2022/05/21 05:31:15;;;;;;;6.57;4.30;;;;;;;-145.69;100.00;71864.06;5075702;28;20608;-76
2022/05/21 05:33:42;;;;;;;6.87;4.00;;;;;;;-145.69;100.00;71848.16;5074674;28;20198;-76
2022/05/21 05:36:09;;;;;;;11.77;4.60;;;;;;;-145.69;100.00;71820.28;5057074;28;20191;-77
2022/05/21 05:38:37;;;;;;;8.00;4.00;;;;;;;-145.69;100.00;71788.44;5055604;28;20233;-77
2022/05/21 05:41:07;;;;;;;4.55;3.42;;;;;;;-145.69;100.00;71804.38;5058500;28;20214;-77
2022/05/21 05:43:33;;;;;;;5.70;3.53;;;;;;;-145.69;100.00;71834.22;5075068;28;20668;-77
2022/05/21 05:46:00;;;;;;;6.60;4.03;;;;;;;-145.69;100.00;71860.09;5075428;28;20207;-77
2022/05/21 05:48:26;;;;;;;6.55;3.85;;;;;;;-145.69;100.00;71893.91;5075171;28;20230;-76
2022/05/21 05:50:54;;;;;;;9.03;4.13;;;;;;;-145.69;100.00;71911.84;5074992;28;20222;-77
2022/05/21 05:53:21;;;;;;;6.70;3.88;;;;;;;-145.69;100.00;71883.97;5074991;28;20199;-77
2022/05/21 05:55:49;;;;;;;6.10;3.90;;;;;;;-145.69;100.00;71822.28;5075222;28;20673;-76
2022/05/21 06:01:02;;;;;;;10.57;3.67;;;;;;;-145.69;100.00;71724.75;5075015;28;20205;-77
2022/05/21 06:03:28;;;;;;;5.63;3.30;;;;;;;-145.69;100.00;71720.78;5074601;28;20206;-78
2022/05/21 06:05:59;;;;;;;5.68;3.00;;;;;;;-145.69;100.00;71677.00;5074942;28;20205;-77
2022/05/21 06:08:28;;;;;;;7.22;3.13;;;;;;;-145.69;100.00;71657.09;5074907;28;20234;-78
2022/05/21 06:10:54;;;;;;;8.38;2.50;;;;;;;-145.69;100.00;71641.19;5073901;28;20202;-77
2022/05/21 06:13:21;;;;;;;5.25;2.60;;;;;;;-145.69;100.00;71728.75;5074649;28;20209;-77
2022/05/21 06:15:48;;;;;;;5.13;2.40;;;;;;;-145.69;100.00;71762.56;5074493;28;20198;-77
2022/05/21 06:18:19;;;;;;;9.20;3.38;;;;;;;-145.69;100.00;71790.44;5074775;28;20680;-77
2022/05/21 06:20:46;;;;;;;5.50;3.03;;;;;;;-145.69;100.00;71736.72;5074825;28;20206;-77
2022/05/21 06:23:14;;;;;;;5.00;2.65;;;;;;;-145.69;100.00;71732.72;5074763;28;20235;-77
2022/05/21 06:25:41;;;;;;;4.20;2.20;;;;;;;-145.69;100.00;71692.94;5074394;28;20199;-78
2022/05/21 06:28:10;;;;;;;5.60;1.70;;;;;;;-145.69;100.00;71698.91;5074435;28;20222;-77
2022/05/21 06:30:39;;;;;;;3.05;2.15;;;;;;;-145.69;97.82;71736.72;5074236;28;20199;-78
2022/05/21 06:33:17;;;;;;;4.45;2.17;;;;;;;-145.69;96.98;71698.91;5074509;28;20219;-77
2022/05/21 06:35:44;;;;;;;6.45;2.30;;;;;;;-145.69;99.79;71708.84;5074254;28;20281;-77
2022/05/21 06:38:12;;;;;;;5.22;1.98;;;;;;;-145.69;99.77;71756.59;5074464;28;20206;-77
2022/05/21 06:40:40;;;;;;;3.15;2.13;;;;;;;-145.69;100.00;71720.78;5074150;28;20202;-77
2022/05/21 06:43:07;;;;;;;4.45;2.40;;;;;;;-145.69;99.54;71708.84;5073409;28;20202;-77
2022/05/21 06:45:35;;;;;;;3.05;1.90;;;;;;;-145.69;98.07;71690.94;5074209;28;20624;-78
2022/05/21 06:48:03;;;;;;;5.95;1.80;;;;;;;-145.69;99.33;71702.88;5074182;28;20198;-78
2022/05/21 06:50:30;;;;;;;2.72;1.90;;;;;;;-145.69;98.50;71682.97;5074160;28;20235;-78
2022/05/21 06:52:57;;;;;;;2.35;1.70;;;;;;;-145.69;88.64;71663.06;5074107;28;20206;-77
2022/05/21 06:55:28;;;;;;;3.15;1.48;;;;;;;-145.69;93.65;71657.09;5073729;28;20252;-79
2022/05/21 06:57:56;;;;;;;4.30;1.70;;;;;;;-145.69;94.67;71647.16;5073954;28;20595;-77
2022/05/21 07:00:24;;;;;;;1.65;1.20;;;;;;;-145.69;87.22;71684.97;5074007;28;20596;-78
2022/05/21 07:02:51;;;;;;;8.38;1.60;;;;;;;-145.69;89.43;71708.84;5073911;28;20195;-77
2022/05/21 07:08:05;;;;;;;3.33;1.48;;;;;;;-145.69;86.90;71680.97;5053580;28;20207;-77
2022/05/21 07:10:32;;;;;;;3.05;1.30;;;;;;;-145.69;77.39;71692.94;5053573;28;20321;-77
2022/05/21 07:13:03;;;;;;;4.45;1.92;;;;;;;-145.69;84.40;71694.91;5054088;28;20210;-77
2022/05/21 07:15:29;;;;;;;4.30;1.52;;;;;;;-145.69;82.79;71669.03;5053774;28;20207;-76
2022/05/21 07:18:03;;;;;;;3.63;1.23;;;;;;;-145.69;84.47;71637.19;5057286;28;20198;-78
2022/05/21 07:20:33;;;;;;;2.63;1.10;;;;;;;-145.69;82.89;71635.22;5073626;28;20199;-77
2022/05/21 07:23:00;;;;;;;1.98;1.20;;;;;;;-145.69;77.06;71651.13;5072591;28;20206;-77
2022/05/21 07:25:32;;;;;;;1.50;1.17;;;;;;;-145.69;78.76;71696.91;5073567;28;20672;-77
2022/05/21 07:28:00;;;;;;;1.55;1.05;;;;;;;-145.69;75.86;71696.91;5073368;28;20702;-77
2022/05/21 07:30:27;;;;;;;2.70;1.10;;;;;;;-145.69;78.54;71663.06;5073045;28;20222;-77
2022/05/21 07:32:55;;;;;;;1.77;1.20;;;;;;;-145.69;79.63;71627.25;5056058;28;20199;-79
2022/05/21 07:35:23;;;;;;;2.90;1.02;;;;;;;-145.69;81.56;71605.38;5053244;28;20605;-77
2022/05/21 07:37:50;;;;;;;4.53;1.10;;;;;;;-145.69;76.56;71629.25;5053680;28;20250;-77
2022/05/21 07:40:18;;;;;;;2.28;0.90;;;;;;;-145.69;78.63;71603.38;5053383;28;20207;-78
2022/05/21 07:42:44;;;;;;;2.30;1.17;;;;;;;-145.69;76.49;71577.50;5059997;28;20194;-78
2022/05/21 07:45:15;;;;;;;2.67;0.93;;;;;;;-145.69;76.14;71549.66;5073378;28;20240;-78
2022/05/21 07:47:41;;;;;;;2.75;0.60;;;;;;;-145.69;71.94;71537.72;5073059;28;20199;-77
2022/05/21 07:50:10;;;;;;;2.65;0.80;;;;;;;-145.69;62.04;71551.63;5073258;28;20256;-78
2022/05/21 07:52:37;;;;;;;3.30;0.52;;;;;;;-145.69;62.04;71549.66;5073224;28;20660;-78
2022/05/21 07:55:04;;;;;;;2.08;0.70;;;;;;;-145.69;64.37;71551.63;5072918;28;20225;-79
2022/05/21 07:57:30;;;;;;;4.28;0.70;;;;;;;-145.69;62.96;71549.66;5073170;28;20596;-80
2022/05/21 07:59:58;;;;;;;1.05;0.65;;;;;;;-145.69;60.70;71569.53;5072929;28;20210;-79
2022/05/21 08:02:26;;;;;;;2.90;0.60;;;;;;;-145.69;61.69;71573.53;5073191;28;20281;-77
2022/05/21 08:04:52;;;;;;;0.85;0.57;;;;;;;-145.69;65.16;71561.59;5072814;28;20206;-79
2022/05/21 08:07:21;;;;;;;0.60;0.55;;;;;;;-145.69;63.59;71549.66;5073120;28;20203;-79
2022/05/21 08:09:48;;;;;;;1.65;0.82;;;;;;;-145.69;64.89;71549.66;5072901;28;20777;-78
2022/05/21 08:12:14;;;;;;;1.10;0.80;;;;;;;-145.69;66.16;71547.66;5073004;28;20206;-77
2022/05/21 08:14:41;;;;;;;0.60;0.60;;;;;;;-145.69;68.96;71511.84;5072609;28;20554;-78
2022/05/21 08:17:08;;;;;;;1.05;0.70;;;;;;;-145.69;64.36;71509.84;5072747;28;20244;-79
2022/05/21 08:19:36;;;;;;;1.27;0.80;;;;;;;-145.69;63.11;71521.78;5072936;28;20327;-77
2022/05/21 08:27:23;;;;;;;1.55;0.80;;;;;;;-145.69;62.19;71493.94;5049491;28;20195;-77
2022/05/21 08:29:50;;;;;;;3.22;0.70;;;;;;;-145.69;62.76;71507.84;5072688;28;20227;-77
2022/05/21 08:32:17;;;;;;;1.23;0.75;;;;;;;-145.69;62.63;71478.00;5072660;28;20206;-79
2022/05/21 08:34:45;;;;;;;1.98;1.00;;;;;;;-145.69;61.81;71476.03;5075702;28;20201;-77
2022/05/21 08:37:12;;;;;;;0.73;0.55;;;;;;;-145.69;64.51;71478.00;5076586;28;20297;-77
2022/05/21 08:39:41;;;;;;;3.13;1.13;;;;;;;-145.69;63.88;71440.19;5076184;28;20217;-77
2022/05/21 08:42:13;;;;;;;2.92;0.70;;;;;;;-145.69;63.74;71414.34;5076641;28;20684;-77
2022/05/21 08:44:44;;;;;;;2.42;0.80;;;;;;;-145.69;68.81;71420.31;5076622;28;20668;-77
2022/05/21 08:47:21;;;;;;;2.33;0.80;;;;;;;-145.69;61.15;71414.34;5076827;28;20198;-80
2022/05/21 08:49:56;;;;;;;1.52;0.80;;;;;;;-145.69;59.62;71402.41;5076492;28;20218;-78
2022/05/21 08:52:26;;;;;;;0.82;0.70;;;;;;;-145.69;63.67;71432.25;5076562;28;20201;-76
2022/05/21 08:54:55;;;;;;;1.17;1.00;;;;;;;-145.69;63.61;71420.31;5076343;28;20690;-77
2022/05/21 08:57:27;;;;;;;1.08;0.70;;;;;;;-145.69;63.70;71382.50;5076304;28;20199;-77
2022/05/21 09:00:04;;;;;;;1.40;0.63;;;;;;;-145.69;63.09;71350.66;5076383;28;20199;-79
2022/05/21 09:02:33;;;;;;;0.90;0.70;;;;;;;-145.69;60.55;71368.56;5075771;28;20657;-77
2022/05/21 09:05:02;;;;;;;0.88;0.70;;;;;;;-145.69;60.74;71382.50;5076352;28;20199;-75
2022/05/21 09:07:41;;;;;;;1.67;0.70;;;;;;;-145.69;58.28;71354.63;5076030;28;20221;-78
2022/05/21 09:10:17;;;;;;;2.25;0.80;;;;;;;-145.69;59.91;71370.56;5076110;28;20230;-77
2022/05/21 09:12:52;;;;;;;1.30;0.50;;;;;;;-145.69;57.26;71368.56;5076050;28;20206;-78
2022/05/21 09:18:04;;;;;;;0.90;0.50;;;;;;;-145.69;56.60;71338.72;5058360;28;20195;-77
2022/05/21 09:20:42;;;;;;;2.33;0.60;;;;;;;-145.69;59.41;71350.66;5055836;28;20206;-77
2022/05/21 09:23:11;;;;;;;2.58;0.60;;;;;;;-145.69;57.25;71312.84;5055835;28;20210;-76
2022/05/21 09:25:37;;;;;;;0.88;0.60;;;;;;;-145.69;54.12;71346.69;5055999;28;20204;-76
2022/05/21 09:28:06;;;;;;;2.08;0.70;;;;;;;-145.69;59.30;71320.81;5069445;28;20199;-77
2022/05/21 09:30:35;;;;;;;1.05;0.63;;;;;;;-145.69;57.66;71294.94;5056272;28;20546;-76
2022/05/21 09:33:21;;;;;;;1.70;0.65;;;;;;;-145.69;52.53;71310.84;5054983;28;20195;-78
2022/05/21 09:35:54;;;;;;;1.30;0.60;;;;;;;-145.69;54.70;71306.88;5055376;28;20294;-76
2022/05/21 09:38:24;;;;;;;3.00;0.73;;;;;;;-145.69;57.03;71290.97;5055543;28;20683;-76
2022/05/21 09:41:04;;;;;;;1.60;0.60;;;;;;;-145.69;55.11;71265.09;5075173;28;20195;-76
2022/05/21 09:46:20;;;;;;;0.98;0.73;;;;;;;-145.69;55.54;71261.13;5074258;28;20592;-76
2022/05/21 09:48:48;;;;;;;0.75;0.60;;;;;;;-145.69;60.72;71243.22;5075418;28;20281;-77
2022/05/21 09:51:29;;;;;;;1.45;0.80;;;;;;;-145.69;59.78;71219.34;5074644;28;20203;-76
2022/05/21 09:53:57;;;;;;;0.90;0.68;;;;;;;-145.69;58.92;71231.28;5075247;28;20289;-77
2022/05/21 09:56:25;;;;;;;1.75;0.70;;;;;;;-145.69;53.55;71237.25;5074975;28;20229;-77
2022/05/21 09:58:54;;;;;;;1.42;0.70;;;;;;;-145.69;51.18;71263.09;5074721;28;20205;-77
2022/05/21 10:01:36;;;;;;;2.28;0.68;;;;;;;-145.69;53.90;71253.16;5074313;28;20226;-78
2022/05/21 10:04:12;;;;;;;0.70;0.70;;;;;;;-145.69;52.26;71247.19;5075133;28;20245;-77
2022/05/21 10:06:43;;;;;;;1.70;0.75;;;;;;;-145.69;54.76;71219.34;5074719;28;20203;-77
2022/05/21 10:12:07;;;;;;;1.80;0.50;;;;;;;-145.69;54.81;71175.56;5074846;28;20321;-78
2022/05/21 10:14:39;;;;;;;2.47;0.70;;;;;;;-145.69;51.40;71219.34;5074158;28;20603;-75
2022/05/21 10:17:08;;;;;;;0.90;0.50;;;;;;;-145.69;51.35;71199.44;5074804;28;20198;-76
2022/05/21 10:19:44;;;;;;;1.27;0.63;;;;;;;-145.69;49.79;71199.44;5074377;28;20686;-78
2022/05/21 10:22:19;;;;;;;1.58;0.50;;;;;;;-145.69;50.11;71203.41;5074528;28;20237;-79
2022/05/21 10:24:56;;;;;;;0.55;0.40;;;;;;;-145.69;50.94;71231.28;5074718;28;20546;-78
2022/05/21 10:27:35;;;;;;;1.00;0.40;;;;;;;-145.69;54.02;71147.69;5074504;28;20209;-79
2022/05/21 10:30:07;;;;;;;0.95;0.50;;;;;;;-145.69;60.28;71105.91;5074200;28;20227;-77
2022/05/21 10:33:08;;;;;;;0.43;0.40;;;;;;;-145.69;52.78;71139.75;5074534;28;20194;-78
2022/05/21 10:35:49;;;;;;;0.85;0.50;;;;;;;-145.69;58.03;71149.69;5070923;28;20205;-76
2022/05/21 10:38:30;;;;;;;0.77;0.70;;;;;;;-145.69;54.90;71133.78;5074534;28;20604;-79
2022/05/21 10:41:02;;;;;;;1.27;0.60;;;;;;;-145.69;59.19;71088.00;5074279;28;20213;-78
2022/05/21 10:43:57;;;;;;;0.57;0.50;;;;;;;-145.69;49.33;71111.88;5074252;28;20233;-81
2022/05/21 10:46:36;;;;;;;1.00;0.70;;;;;;;-145.69;48.56;71115.88;5074098;28;20260;-78
2022/05/21 10:49:33;;;;;;;0.77;0.45;;;;;;;-145.69;51.53;71062.13;5073986;28;20194;-78
2022/05/21 10:52:03;;;;;;;0.40;0.38;;;;;;;-145.69;51.05;71038.25;5073514;28;20732;-78
2022/05/21 10:54:48;;;;;;;1.52;0.57;;;;;;;-145.69;50.62;71034.28;5073508;28;20195;-77
2022/05/21 10:57:31;;;;;;;0.40;0.40;;;;;;;-145.69;49.71;71046.22;5073678;28;20234;-77
2022/05/21 11:00:05;;;;;;;1.85;0.50;;;;;;;-145.69;46.36;71026.31;5074044;28;20213;-79
2022/05/21 11:03:16;;;;;;;0.93;0.55;;;;;;;-145.69;48.54;71036.28;5073718;28;20229;-78
2022/05/21 11:05:54;;;;;;;1.13;0.60;;;;;;;-145.69;50.13;71044.22;5073739;28;20198;-79
2022/05/21 11:08:29;;;;;;;4.10;0.50;;;;;;;-145.69;47.32;71012.41;5073561;28;20237;-79
2022/05/21 11:11:03;;;;;;;1.15;0.60;;;;;;;-145.69;45.28;71026.31;5073542;28;20237;-78
2022/05/21 11:13:35;;;;;;;1.58;0.50;;;;;;;-145.69;45.94;71080.06;5073783;28;20560;-78
2022/05/21 11:16:08;;;;;;;0.88;0.57;;;;;;;-145.69;42.54;71052.19;5073562;28;20195;-78
2022/05/21 11:18:40;;;;;;;1.70;0.52;;;;;;;-145.69;43.13;71024.34;5073814;28;20199;-78
2022/05/21 11:21:13;;;;;;;0.40;0.38;;;;;;;-145.69;48.30;70970.63;5073267;28;20290;-78
2022/05/21 11:23:52;;;;;;;1.70;0.70;;;;;;;-145.69;46.18;70932.81;5059019;28;20684;-78
2022/05/21 11:26:29;;;;;;;0.82;0.40;;;;;;;-145.69;48.94;70922.88;5053330;28;20206;-78
2022/05/21 11:29:00;;;;;;;0.93;0.30;;;;;;;-145.69;43.10;70996.47;5067237;28;20202;-78
2022/05/21 11:37:22;;;;;;;0.45;0.40;;;;;;;-145.69;42.77;70899.00;5073366;28;20241;-78
2022/05/21 11:39:51;;;;;;;0.45;0.30;;;;;;;-145.69;48.08;70881.09;5073163;28;20202;-79
2022/05/21 11:42:22;;;;;;;0.95;0.40;;;;;;;-145.69;42.59;70934.81;5073125;28;20233;-78
2022/05/21 11:44:56;;;;;;;1.85;0.40;;;;;;;-145.69;40.67;70946.75;5072833;28;20203;-79
2022/05/21 11:47:45;;;;;;;2.35;0.43;;;;;;;-145.69;48.85;70910.94;5073217;28;20297;-80
2022/05/21 11:50:26;;;;;;;0.30;0.30;;;;;;;-145.69;43.15;70833.34;5072908;28;20272;-79
2022/05/21 11:53:17;;;;;;;0.40;0.40;;;;;;;-145.69;40.32;70845.28;5072722;28;20205;-79
2022/05/21 11:56:08;;;;;;;0.32;0.25;;;;;;;-145.69;38.61;70869.16;5073023;28;20272;-77
2022/05/21 11:59:24;;;;;;;2.90;0.40;;;;;;;-145.69;45.58;70823.38;5072910;28;20206;-79
2022/05/21 12:02:17;;;;;;;0.40;0.40;;;;;;;-145.69;42.31;70813.44;5073084;28;20191;-78